CY-0008 weather

CLOSED RAF Ayios Nikolaos Air Base
Larnarca District, Cyprus

Public forecast

Using degrees Celsius for public forecast. Weather courtesy of forecast.io.

METAR (pilot weather report)

Closest report is Larnaca International Airport, 18.4 nm (34.1 km) SW. Retrieved 2019/06/19 04:30 UTC (0 seconds ago):

LCLK 190430Z 06003KT 8000 FEW008 25/23 Q1009 NOSIG

TAF (pilot weather forecast)

Forecast is more than 12 hours old.

Closest forecast is Larnaca International Airport, 18.4 nm (34.1 km) SW. Retrieved 2019/06/18 00:30 UTC (1 day ago):

TAF LCLK 182330Z 1900/1924 24007KT 9999 FEW025 PROB30 1900/1905 4000 BR BKN007 PROB30 1900/1905 0900 BCFG BKN001 BECMG 1906/1910 22022KT BECMG 1917/1921 24008KT